| time (UTC) | temp C | wind direction | speed KPH | gust KPH | rain 1hr cm | rain 24hr cm | rain mn cm | humidity % | barometer mb |
| 20260507141606 | 11 | 149 | 1.6 | 3.2 | 0.00 | 0.00 | 0.00 | 56 | 1008.0 |
| 20260507141103 | 11 | 124 | 3.2 | 3.2 | 0.00 | 0.00 | 0.00 | 48 | 1008.1 |
| 20260507140600 | 11 | 339 | 4.8 | 4.8 | 0.00 | 0.00 | 0.00 | 50 | 1007.9 |
| 20260507140057 | 11 | 350 | 9.7 | 12.9 | 0.00 | 0.00 | 0.00 | 49 | 1008.0 |
| 20260507135554 | 11 | 108 | 1.6 | 1.6 | 0.00 | 0.00 | 0.00 | 56 | 1008.0 |
| 20260507135051 | 10 | 7 | 8.0 | 11.3 | 0.00 | 0.00 | 0.00 | 60 | 1007.8 |
| 20260507134548 | 10 | 8 | 8.0 | 9.7 | 0.00 | 0.00 | 0.00 | 60 | 1007.8 |
| 20260507134043 | 10 | 190 | 0.0 | 0.0 | 0.00 | 0.00 | 0.00 | 63 | 1008.0 |
| 20260507133540 | 10 | 0 | 8.0 | 9.7 | 0.00 | 0.00 | 0.00 | 60 | 1008.1 |
| 20260507133038 | 10 | 8 | 12.9 | 14.5 | 0.00 | 0.00 | 0.00 | 64 | 1008.0 |
| 20260507132534 | 10 | 91 | 9.7 | 12.9 | 0.00 | 0.00 | 0.00 | 68 | 1007.8 |
| 20260507132031 | 10 | 294 | 1.6 | 3.2 | 0.00 | 0.00 | 0.00 | 73 | 1008.0 |
| 20260507131528 | 10 | 186 | 1.6 | 3.2 | 0.00 | 0.00 | 0.00 | 74 | 1008.0 |
| 20260507131025 | 10 | 6 | 8.0 | 11.3 | 0.00 | 0.00 | 0.00 | 74 | 1007.8 |
| 20260507130522 | 10 | 176 | 1.6 | 1.6 | 0.00 | 0.00 | 0.00 | 72 | 1008.0 |
| 20260507130020 | 9 | 170 | 0.0 | 0.0 | 0.00 | 0.00 | 0.00 | 80 | 1008.0 |
| 20260507125518 | 8 | 204 | 0.0 | 1.6 | 0.00 | 0.00 | 0.00 | 89 | 1008.1 |
| 20260507125015 | 8 | 170 | 0.0 | 0.0 | 0.00 | 0.00 | 0.00 | 99 | 1008.0 |
| 20260507124512 | 7 | 174 | 0.0 | 0.0 | 0.00 | 0.00 | 0.00 | 99 | 1008.0 |
| 20260507124009 | 6 | 178 | 0.0 | 0.0 | 0.00 | 0.00 | 0.00 | 99 | 1007.8 |
| 20260507123508 | 6 | 178 | 1.6 | 1.6 | 0.00 | 0.00 | 0.00 | 99 | 1007.7 |
| 20260507123004 | 6 | 167 | 0.0 | 1.6 | 0.00 | 0.00 | 0.00 | 99 | 1007.4 |
| 20260507122459 | 6 | 179 | 0.0 | 0.0 | 0.00 | 0.00 | 0.00 | 99 | 1008.0 |
| 20260507121955 | 6 | 177 | 0.0 | 0.0 | 0.00 | 0.00 | 0.00 | 99 | 1008.0 |
| 20260507121451 | 6 | 177 | 0.0 | 0.0 | 0.00 | 0.00 | 0.00 | 99 | 1007.8 |
| 20260507120947 | 6 | 177 | 0.0 | 0.0 | 0.00 | 0.00 | 0.00 | 99 | 1007.7 |
| 20260507120443 | 6 | 177 | 0.0 | 0.0 | 0.00 | 0.00 | 0.00 | 99 | 1007.8 |
| 20260507115940 | 6 | 177 | 0.0 | 0.0 | 0.00 | 0.00 | 0.00 | 99 | 1007.7 |
| 20260507115436 | 6 | 177 | 0.0 | 0.0 | 0.00 | 0.00 | 0.00 | 99 | 1007.7 |
| 20260507114932 | 6 | 177 | 0.0 | 0.0 | 0.00 | 0.00 | 0.00 | 99 | 1007.7 |
| 20260507114429 | 6 | 177 | 0.0 | 0.0 | 0.00 | 0.00 | 0.00 | 99 | 1007.4 |
| 20260507113926 | 6 | 177 | 0.0 | 0.0 | 0.00 | 0.00 | 0.00 | 99 | 1007.7 |
| 20260507113423 | 6 | 177 | 0.0 | 0.0 | 0.00 | 0.00 | 0.00 | 99 | 1007.5 |
| 20260507112920 | 6 | 177 | 0.0 | 0.0 | 0.00 | 0.00 | 0.00 | 99 | 1007.1 |
| 20260507112418 | 6 | 177 | 0.0 | 0.0 | 0.00 | 0.00 | 0.00 | 99 | 1007.3 |
| 20260507111915 | 5 | 177 | 0.0 | 0.0 | 0.00 | 0.00 | 0.00 | 99 | 1007.4 |
| 20260507111412 | 5 | 177 | 0.0 | 0.0 | 0.00 | 0.00 | 0.00 | 99 | 1007.5 |
| 20260507110908 | 5 | 177 | 0.0 | 0.0 | 0.00 | 0.00 | 0.00 | 99 | 1007.4 |
| 20260507110404 | 5 | 177 | 0.0 | 0.0 | 0.00 | 0.00 | 0.00 | 99 | 1007.3 |
| 20260507105901 | 5 | 177 | 0.0 | 0.0 | 0.00 | 0.00 | 0.00 | 99 | 1007.5 |
| 20260507105358 | 5 | 178 | 0.0 | 0.0 | 0.00 | 0.00 | 0.00 | 99 | 1007.5 |
| 20260507104855 | 5 | 178 | 0.0 | 0.0 | 0.00 | 0.00 | 0.00 | 99 | 1007.5 |
| 20260507104351 | 5 | 178 | 0.0 | 0.0 | 0.00 | 0.00 | 0.00 | 99 | 1007.4 |
| 20260507103847 | 5 | 178 | 0.0 | 0.0 | 0.00 | 0.00 | 0.00 | 99 | 1007.5 |
| 20260507103344 | 5 | 178 | 0.0 | 0.0 | 0.00 | 0.00 | 0.00 | 99 | 1007.5 |
| 20260507102840 | 5 | 178 | 0.0 | 0.0 | 0.00 | 0.00 | 0.00 | 99 | 1007.5 |
| 20260507102337 | 5 | 177 | 0.0 | 0.0 | 0.00 | 0.00 | 0.00 | 99 | 1007.3 |
| 20260507101833 | 5 | 177 | 0.0 | 0.0 | 0.00 | 0.00 | 0.00 | 99 | 1007.1 |
| 20260507101328 | 5 | 177 | 0.0 | 0.0 | 0.00 | 0.00 | 0.00 | 99 | 1007.3 |
| 20260507100825 | 5 | 177 | 0.0 | 0.0 | 0.00 | 0.00 | 0.00 | 99 | 1007.4 |
| 20260507100323 | 5 | 177 | 0.0 | 0.0 | 0.00 | 0.00 | 0.00 | 99 | 1007.3 |
| 20260507095821 | 5 | 177 | 0.0 | 0.0 | 0.00 | 0.00 | 0.00 | 99 | 1007.1 |
| 20260507095317 | 5 | 177 | 0.0 | 0.0 | 0.00 | 0.00 | 0.00 | 99 | 1007.3 |
| 20260507094815 | 5 | 177 | 0.0 | 0.0 | 0.00 | 0.00 | 0.00 | 99 | 1007.1 |
| 20260507094311 | 4 | 177 | 0.0 | 0.0 | 0.00 | 0.00 | 0.00 | 99 | 1007.0 |
| 20260507093808 | 4 | 177 | 0.0 | 0.0 | 0.00 | 0.00 | 0.00 | 99 | 1006.9 |
| 20260507093307 | 4 | 177 | 0.0 | 0.0 | 0.00 | 0.00 | 0.00 | 99 | 1007.4 |
| 20260507092804 | 4 | 177 | 0.0 | 0.0 | 0.00 | 0.00 | 0.00 | 99 | 1007.4 |
| 20260507092300 | 4 | 177 | 0.0 | 0.0 | 0.00 | 0.00 | 0.00 | 99 | 1007.4 |
| 20260507091757 | 4 | 177 | 0.0 | 0.0 | 0.00 | 0.00 | 0.00 | 99 | 1007.5 |
| 20260507091254 | 4 | 177 | 0.0 | 0.0 | 0.00 | 0.00 | 0.00 | 99 | 1007.4 |
| 20260507090753 | 4 | 177 | 0.0 | 0.0 | 0.00 | 0.00 | 0.00 | 99 | 1007.4 |
| 20260507090251 | 4 | 177 | 0.0 | 0.0 | 0.00 | 0.00 | 0.00 | 99 | 1007.5 |
| 20260507085748 | 4 | 177 | 0.0 | 0.0 | 0.00 | 0.00 | 0.00 | 99 | 1007.5 |
| 20260507085244 | 5 | 177 | 0.0 | 0.0 | 0.00 | 0.00 | 0.00 | 99 | 1007.4 |
| 20260507084742 | 5 | 177 | 0.0 | 0.0 | 0.00 | 0.00 | 0.00 | 99 | 1007.4 |
| 20260507084238 | 5 | 177 | 0.0 | 0.0 | 0.00 | 0.00 | 0.00 | 99 | 1007.1 |
| 20260507083736 | 5 | 177 | 0.0 | 0.0 | 0.00 | 0.00 | 0.00 | 99 | 1007.3 |
| 20260507083232 | 5 | 177 | 0.0 | 0.0 | 0.00 | 0.00 | 0.00 | 99 | 1007.4 |
| 20260507082728 | 5 | 177 | 0.0 | 0.0 | 0.00 | 0.00 | 0.00 | 99 | 1007.5 |
| 20260507082224 | 5 | 177 | 0.0 | 0.0 | 0.00 | 0.00 | 0.00 | 99 | 1007.6 |
| 20260507081721 | 5 | 177 | 0.0 | 0.0 | 0.00 | 0.00 | 0.00 | 99 | 1007.6 |
| 20260507081217 | 5 | 179 | 0.0 | 0.0 | 0.00 | 0.00 | 0.00 | 99 | 1007.6 |
| 20260507080714 | 5 | 179 | 0.0 | 0.0 | 0.00 | 0.00 | 0.00 | 99 | 1007.8 |
| 20260507080210 | 5 | 179 | 0.0 | 0.0 | 0.00 | 0.00 | 0.00 | 99 | 1007.6 |
| 20260507075705 | 5 | 179 | 0.0 | 0.0 | 0.00 | 0.00 | 0.00 | 99 | 1007.4 |
| 20260507075202 | 5 | 179 | 0.0 | 0.0 | 0.00 | 0.00 | 0.00 | 99 | 1007.6 |
| 20260507074658 | 5 | 179 | 0.0 | 0.0 | 0.00 | 0.00 | 0.00 | 99 | 1007.8 |
| 20260507074157 | 5 | 179 | 0.0 | 0.0 | 0.00 | 0.00 | 0.00 | 99 | 1007.5 |
| 20260507073653 | 5 | 180 | 0.0 | 0.0 | 0.00 | 0.00 | 0.00 | 99 | 1007.3 |
| 20260507073149 | 5 | 180 | 0.0 | 0.0 | 0.00 | 0.00 | 0.00 | 99 | 1007.5 |
| 20260507072647 | 5 | 180 | 0.0 | 0.0 | 0.00 | 0.00 | 0.00 | 99 | 1007.4 |
| 20260507072144 | 5 | 180 | 0.0 | 0.0 | 0.00 | 0.00 | 0.00 | 99 | 1007.4 |
| 20260507071642 | 5 | 180 | 0.0 | 0.0 | 0.00 | 0.00 | 0.00 | 99 | 1007.5 |
| 20260507071138 | 5 | 180 | 0.0 | 0.0 | 0.00 | 0.00 | 0.00 | 99 | 1007.5 |
| 20260507070635 | 5 | 180 | 0.0 | 0.0 | 0.00 | 0.00 | 0.00 | 99 | 1007.1 |
| 20260507070132 | 5 | 180 | 0.0 | 0.0 | 0.00 | 0.00 | 0.00 | 99 | 1007.0 |
| 20260507065628 | 5 | 180 | 0.0 | 0.0 | 0.00 | 0.00 | 0.00 | 99 | 1006.9 |
| 20260507065125 | 5 | 180 | 0.0 | 0.0 | 0.00 | 0.00 | 0.00 | 99 | 1007.3 |
| 20260507064623 | 5 | 180 | 0.0 | 0.0 | 0.00 | 0.00 | 0.00 | 99 | 1007.0 |
| 20260507064121 | 5 | 180 | 0.0 | 0.0 | 0.00 | 0.00 | 0.00 | 99 | 1007.3 |
| 20260507063618 | 5 | 180 | 0.0 | 0.0 | 0.00 | 0.00 | 0.00 | 99 | 1007.3 |
| 20260507063115 | 5 | 180 | 0.0 | 0.0 | 0.00 | 0.00 | 0.00 | 99 | 1007.3 |
| 20260507062612 | 5 | 180 | 0.0 | 0.0 | 0.00 | 0.00 | 0.00 | 99 | 1007.1 |
| 20260507062110 | 5 | 180 | 0.0 | 0.0 | 0.00 | 0.00 | 0.00 | 99 | 1007.3 |
| 20260507061607 | 5 | 180 | 0.0 | 0.0 | 0.00 | 0.00 | 0.00 | 99 | 1007.4 |
| 20260507061105 | 5 | 180 | 0.0 | 0.0 | 0.00 | 0.00 | 0.00 | 99 | 1007.1 |
| 20260507060603 | 5 | 180 | 0.0 | 0.0 | 0.00 | 0.00 | 0.00 | 99 | 1007.4 |
| 20260507060059 | 5 | 180 | 0.0 | 0.0 | 0.00 | 0.00 | 0.00 | 99 | 1007.7 |
| 20260507055554 | 5 | 180 | 0.0 | 0.0 | 0.00 | 0.00 | 0.00 | 99 | 1007.5 |
| 20260507055051 | 5 | 182 | 0.0 | 0.0 | 0.00 | 0.00 | 0.00 | 99 | 1007.5 |
| 20260507054547 | 5 | 181 | 0.0 | 0.0 | 0.00 | 0.00 | 0.00 | 99 | 1007.7 |
| 20260507054044 | 5 | 181 | 0.0 | 0.0 | 0.00 | 0.00 | 0.00 | 99 | 1007.8 |
| 20260507053542 | 5 | 181 | 0.0 | 0.0 | 0.00 | 0.00 | 0.00 | 99 | 1007.7 |
| 20260507053040 | 5 | 181 | 0.0 | 0.0 | 0.00 | 0.00 | 0.00 | 99 | 1007.7 |
| 20260507052538 | 5 | 181 | 0.0 | 0.0 | 0.00 | 0.00 | 0.00 | 99 | 1008.2 |
| 20260507052034 | 5 | 183 | 0.0 | 0.0 | 0.00 | 0.00 | 0.00 | 99 | 1007.8 |
| 20260507051532 | 5 | 183 | 0.0 | 0.0 | 0.00 | 0.00 | 0.00 | 99 | 1007.7 |
| 20260507051028 | 5 | 183 | 0.0 | 0.0 | 0.00 | 0.00 | 0.00 | 99 | 1007.8 |
| 20260507050525 | 5 | 183 | 0.0 | 0.0 | 0.00 | 0.00 | 0.00 | 99 | 1007.8 |
| 20260507050022 | 5 | 183 | 0.0 | 0.0 | 0.00 | 0.00 | 0.00 | 99 | 1008.0 |
| 20260507045518 | 5 | 183 | 0.0 | 0.0 | 0.00 | 0.00 | 0.00 | 99 | 1008.1 |
| 20260507045016 | 5 | 183 | 0.0 | 0.0 | 0.00 | 0.00 | 0.00 | 99 | 1007.8 |
| 20260507044512 | 5 | 183 | 0.0 | 0.0 | 0.00 | 0.00 | 0.00 | 99 | 1008.0 |
| 20260507044009 | 6 | 183 | 0.0 | 0.0 | 0.00 | 0.00 | 0.00 | 99 | 1008.0 |
| 20260507043505 | 6 | 183 | 0.0 | 0.0 | 0.00 | 0.00 | 0.00 | 99 | 1008.1 |
| 20260507043002 | 6 | 184 | 0.0 | 0.0 | 0.00 | 0.00 | 0.00 | 99 | 1008.0 |
| 20260507042458 | 6 | 184 | 0.0 | 0.0 | 0.00 | 0.00 | 0.00 | 99 | 1007.8 |
| 20260507041954 | 6 | 184 | 0.0 | 0.0 | 0.00 | 0.00 | 0.00 | 99 | 1007.7 |
| 20260507041451 | 6 | 184 | 0.0 | 0.0 | 0.00 | 0.00 | 0.00 | 99 | 1007.9 |
| 20260507040948 | 6 | 183 | 0.0 | 0.0 | 0.00 | 0.00 | 0.00 | 99 | 1008.0 |
| 20260507040443 | 6 | 183 | 0.0 | 0.0 | 0.00 | 0.00 | 0.00 | 99 | 1008.1 |
| 20260507035940 | 6 | 183 | 0.0 | 0.0 | 0.00 | 2.54 | 2.54 | 99 | 1008.1 |
| 20260507035436 | 6 | 181 | 0.0 | 0.0 | 0.00 | 2.54 | 2.54 | 99 | 1007.9 |
| 20260507034933 | 6 | 180 | 0.0 | 0.0 | 0.00 | 2.54 | 2.54 | 99 | 1007.9 |
| 20260507034430 | 6 | 189 | 0.0 | 0.0 | 0.00 | 2.54 | 2.54 | 99 | 1007.7 |
| 20260507033928 | 6 | 180 | 0.0 | 0.0 | 0.00 | 2.54 | 2.54 | 99 | 1007.9 |
| 20260507033426 | 6 | 178 | 0.0 | 0.0 | 0.00 | 2.54 | 2.54 | 99 | 1008.2 |
| 20260507032922 | 6 | 178 | 0.0 | 0.0 | 0.00 | 2.54 | 2.54 | 99 | 1008.2 |
| 20260507032420 | 6 | 178 | 0.0 | 0.0 | 0.00 | 2.54 | 2.54 | 99 | 1008.2 |
| 20260507031915 | 6 | 178 | 0.0 | 0.0 | 0.00 | 2.54 | 2.54 | 99 | 1008.2 |
| 20260507031412 | 6 | 177 | 0.0 | 0.0 | 0.00 | 2.54 | 2.54 | 99 | 1008.4 |
| 20260507030909 | 6 | 177 | 0.0 | 0.0 | 0.00 | 2.54 | 2.54 | 99 | 1008.0 |
| 20260507030406 | 6 | 177 | 0.0 | 0.0 | 0.00 | 2.54 | 2.54 | 99 | 1007.9 |
| 20260507025903 | 6 | 177 | 0.0 | 0.0 | 0.00 | 2.54 | 2.54 | 99 | 1007.9 |
| 20260507025401 | 6 | 177 | 0.0 | 0.0 | 0.00 | 2.54 | 2.54 | 99 | 1008.1 |
| 20260507024858 | 6 | 177 | 0.0 | 0.0 | 0.00 | 2.54 | 2.54 | 99 | 1008.3 |
| 20260507024355 | 6 | 177 | 0.0 | 0.0 | 0.00 | 2.54 | 2.54 | 99 | 1008.3 |
| 20260507023851 | 6 | 177 | 0.0 | 0.0 | 0.00 | 2.54 | 2.54 | 99 | 1008.4 |
| 20260507023348 | 6 | 177 | 0.0 | 0.0 | 0.00 | 2.54 | 2.54 | 99 | 1008.3 |
| 20260507022845 | 6 | 177 | 0.0 | 0.0 | 0.13 | 2.54 | 2.54 | 99 | 1008.3 |
| 20260507022342 | 6 | 177 | 0.0 | 0.0 | 0.13 | 2.54 | 2.54 | 99 | 1008.2 |
| 20260507021838 | 6 | 177 | 0.0 | 0.0 | 0.00 | 2.51 | 2.51 | 99 | 1008.4 |
| 20260507021333 | 6 | 177 | 0.0 | 0.0 | 0.00 | 2.51 | 2.51 | 99 | 1008.1 |
| 20260507020831 | 6 | 177 | 0.0 | 0.0 | 0.00 | 2.51 | 2.51 | 99 | 1008.3 |
| 20260507020328 | 6 | 177 | 0.0 | 0.0 | 0.00 | 2.51 | 2.51 | 99 | 1008.5 |
| 20260507015825 | 6 | 177 | 0.0 | 0.0 | 0.00 | 2.51 | 2.51 | 99 | 1008.2 |
| 20260507015323 | 6 | 178 | 0.0 | 0.0 | 0.00 | 2.51 | 2.51 | 99 | 1008.2 |
| 20260507014820 | 6 | 179 | 0.0 | 0.0 | 0.00 | 2.51 | 2.51 | 99 | 1008.5 |
| 20260507014316 | 6 | 179 | 0.0 | 0.0 | 0.00 | 2.51 | 2.51 | 99 | 1008.4 |
| 20260507013812 | 7 | 179 | 0.0 | 0.0 | 0.18 | 2.51 | 2.51 | 99 | 1008.5 |
| 20260507013310 | 6 | 179 | 0.0 | 0.0 | 0.18 | 2.51 | 2.51 | 99 | 1008.6 |
| 20260507012807 | 6 | 179 | 0.0 | 0.0 | 0.13 | 2.49 | 2.49 | 99 | 1008.5 |
| 20260507012306 | 6 | 179 | 0.0 | 0.0 | 0.13 | 2.49 | 2.49 | 99 | 1008.3 |
| 20260507011800 | 6 | 179 | 0.0 | 0.0 | 0.00 | 2.46 | 2.46 | 99 | 1008.6 |
| 20260507011256 | 6 | 179 | 0.0 | 0.0 | 0.00 | 2.46 | 2.46 | 99 | 1008.5 |
| 20260507010756 | 6 | 180 | 0.0 | 0.0 | 0.00 | 2.46 | 2.46 | 99 | 1008.3 |
| 20260507010252 | 6 | 180 | 0.0 | 0.0 | 0.00 | 2.46 | 2.46 | 99 | 1008.2 |
| 20260507005750 | 7 | 180 | 0.0 | 0.0 | 0.00 | 2.46 | 2.46 | 99 | 1008.3 |
| 20260507005246 | 6 | 180 | 0.0 | 0.0 | 0.00 | 2.46 | 2.46 | 99 | 1008.0 |
| 20260507004743 | 6 | 180 | 0.0 | 0.0 | 0.00 | 2.46 | 2.46 | 99 | 1008.1 |
| 20260507004241 | 6 | 180 | 0.0 | 0.0 | 0.00 | 2.46 | 2.46 | 99 | 1008.0 |
| 20260507003736 | 7 | 179 | 0.0 | 0.0 | 0.00 | 2.46 | 2.46 | 99 | 1007.9 |
| 20260507003232 | 7 | 180 | 0.0 | 0.0 | 0.18 | 2.46 | 2.46 | 99 | 1007.7 |
| 20260507002728 | 7 | 182 | 0.0 | 0.0 | 0.00 | 2.44 | 2.44 | 99 | 1007.6 |
| 20260507002224 | 7 | 197 | 1.6 | 1.6 | 0.00 | 2.44 | 2.44 | 99 | 1007.6 |
| 20260507001721 | 7 | 183 | 0.0 | 0.0 | 0.00 | 2.44 | 2.44 | 99 | 1007.8 |
| 20260507001218 | 7 | 184 | 0.0 | 0.0 | 0.00 | 2.44 | 2.44 | 99 | 1007.6 |
| 20260507000714 | 7 | 185 | 0.0 | 0.0 | 0.00 | 2.44 | 2.44 | 99 | 1007.4 |
| 20260507000212 | 7 | 207 | 1.6 | 1.6 | 0.00 | 2.44 | 2.44 | 99 | 1007.0 |
| 20260506235708 | 7 | 182 | 0.0 | 0.0 | 0.00 | 2.44 | 2.44 | 99 | 1007.3 |
| 20260506235203 | 7 | 190 | 0.0 | 0.0 | 0.13 | 2.44 | 2.44 | 99 | 1006.9 |
| 20260506234700 | 7 | 188 | 0.0 | 0.0 | 0.13 | 2.44 | 2.44 | 99 | 1006.6 |
| 20260506234157 | 7 | 190 | 0.0 | 0.0 | 0.00 | 2.41 | 2.41 | 99 | 1007.1 |
| 20260506233654 | 7 | 202 | 1.6 | 1.6 | 0.00 | 2.41 | 2.41 | 99 | 1006.8 |
| 20260506233151 | 6 | 283 | 3.2 | 3.2 | 0.00 | 2.41 | 2.41 | 99 | 1006.6 |
| 20260506232647 | 7 | 184 | 1.6 | 1.6 | 0.00 | 2.41 | 2.41 | 99 | 1006.7 |
| 20260506232143 | 7 | 210 | 0.0 | 1.6 | 0.00 | 2.41 | 2.41 | 99 | 1007.0 |
| 20260506231640 | 7 | 215 | 0.0 | 1.6 | 0.00 | 2.41 | 2.41 | 99 | 1006.9 |
| 20260506231139 | 7 | 255 | 3.2 | 3.2 | 0.18 | 2.41 | 2.41 | 99 | 1006.6 |
| 20260506230635 | 7 | 273 | 3.2 | 3.2 | 0.18 | 2.41 | 2.41 | 99 | 1006.8 |
| 20260506230132 | 7 | 182 | 0.0 | 0.0 | 0.00 | 2.39 | 2.39 | 99 | 1006.8 |
| 20260506225628 | 7 | 196 | 0.0 | 1.6 | 0.00 | 2.39 | 2.39 | 99 | 1006.7 |
| 20260506225125 | 7 | 184 | 0.0 | 0.0 | 0.00 | 2.39 | 2.39 | 99 | 1006.5 |
| 20260506224622 | 7 | 184 | 0.0 | 0.0 | 0.00 | 2.39 | 2.39 | 99 | 1006.7 |
| 20260506224118 | 7 | 185 | 0.0 | 0.0 | 0.00 | 2.39 | 2.39 | 99 | 1006.7 |
| 20260506223614 | 7 | 152 | 1.6 | 1.6 | 0.00 | 2.39 | 2.39 | 99 | 1006.7 |
| 20260506223110 | 7 | 174 | 1.6 | 1.6 | 0.00 | 2.39 | 2.39 | 99 | 1006.8 |
| 20260506222608 | 7 | 186 | 0.0 | 0.0 | 0.00 | 2.39 | 2.39 | 99 | 1006.6 |
| 20260506222104 | 7 | 186 | 0.0 | 0.0 | 0.13 | 2.39 | 2.39 | 99 | 1006.4 |
| 20260506221602 | 7 | 198 | 0.0 | 0.0 | 0.00 | 2.36 | 2.36 | 99 | 1006.2 |
| 20260506221100 | 7 | 192 | 0.0 | 1.6 | 0.00 | 2.36 | 2.36 | 99 | 1006.3 |
| 20260506220555 | 7 | 220 | 1.6 | 3.2 | 0.00 | 2.36 | 2.36 | 99 | 1006.4 |
| 20260506220051 | 7 | 191 | 0.0 | 1.6 | 0.00 | 2.36 | 2.36 | 99 | 1006.5 |
| 20260506215548 | 7 | 249 | 1.6 | 3.2 | 0.00 | 2.36 | 2.36 | 99 | 1006.3 |
| 20260506215044 | 7 | 246 | 3.2 | 3.2 | 0.00 | 2.36 | 2.36 | 99 | 1006.4 |
| 20260506214541 | 7 | 182 | 0.0 | 0.0 | 0.00 | 2.36 | 2.36 | 99 | 1006.3 |
| 20260506214038 | 7 | 194 | 0.0 | 1.6 | 0.00 | 2.36 | 2.36 | 99 | 1006.3 |
| 20260506213536 | 7 | 180 | 0.0 | 0.0 | 0.00 | 2.36 | 2.36 | 99 | 1006.2 |
| 20260506213033 | 7 | 0 | 3.2 | 3.2 | 0.00 | 2.36 | 2.36 | 99 | 1006.3 |
| 20260506212530 | 7 | 222 | 1.6 | 1.6 | 0.00 | 2.36 | 2.36 | 99 | 1006.1 |
| 20260506212025 | 7 | 211 | 1.6 | 1.6 | 0.00 | 2.36 | 2.36 | 99 | 1006.1 |
| 20260506211521 | 7 | 187 | 0.0 | 0.0 | 0.00 | 2.36 | 2.36 | 99 | 1006.3 |
| 20260506211018 | 7 | 221 | 1.6 | 1.6 | 0.00 | 2.36 | 2.36 | 99 | 1006.3 |
| 20260506210515 | 7 | 256 | 1.6 | 3.2 | 0.00 | 2.36 | 2.36 | 99 | 1006.1 |
| 20260506210011 | 7 | 190 | 0.0 | 0.0 | 0.18 | 2.36 | 2.36 | 99 | 1006.2 |
| 20260506205508 | 7 | 193 | 1.6 | 1.6 | 0.18 | 2.36 | 2.36 | 99 | 1006.2 |
| 20260506205003 | 7 | 256 | 1.6 | 1.6 | 0.00 | 2.34 | 2.34 | 99 | 1005.9 |
| 20260506204502 | 7 | 201 | 1.6 | 1.6 | 0.00 | 2.34 | 2.34 | 99 | 1006.1 |
| 20260506203959 | 7 | 171 | 1.6 | 1.6 | 0.00 | 2.34 | 2.34 | 99 | 1006.1 |
| 20260506203456 | 7 | 183 | 0.0 | 0.0 | 0.18 | 2.34 | 2.34 | 99 | 1006.3 |
| 20260506202953 | 7 | 197 | 0.0 | 0.0 | 0.18 | 2.34 | 2.34 | 99 | 1006.0 |
| 20260506202450 | 7 | 227 | 1.6 | 1.6 | 0.00 | 2.31 | 2.31 | 99 | 1006.1 |
| 20260506201946 | 7 | 192 | 0.0 | 0.0 | 0.00 | 2.31 | 2.31 | 99 | 1006.0 |
| 20260506201444 | 7 | 262 | 1.6 | 3.2 | 0.13 | 2.31 | 2.31 | 99 | 1005.9 |
| 20260506200940 | 7 | 211 | 1.6 | 1.6 | 0.13 | 2.31 | 2.31 | 99 | 1006.1 |
| 20260506200437 | 7 | 195 | 1.6 | 1.6 | 0.30 | 2.29 | 2.29 | 99 | 1006.1 |
| 20260506195933 | 7 | 198 | 1.6 | 1.6 | 0.48 | 2.29 | 2.29 | 99 | 1006.1 |
| 20260506195430 | 7 | 215 | 1.6 | 1.6 | 0.18 | 2.24 | 2.24 | 99 | 1006.1 |
| 20260506194927 | 7 | 257 | 1.6 | 3.2 | 0.00 | 2.21 | 2.21 | 99 | 1005.8 |
| 20260506194424 | 7 | 340 | 3.2 | 3.2 | 0.00 | 2.21 | 2.21 | 99 | 1005.8 |
| 20260506193921 | 7 | 222 | 1.6 | 1.6 | 0.13 | 2.21 | 2.21 | 99 | 1005.8 |
| 20260506193418 | 7 | 181 | 0.0 | 0.0 | 0.13 | 2.21 | 2.21 | 99 | 1006.1 |
| 20260506192914 | 7 | 231 | 1.6 | 1.6 | 0.18 | 2.18 | 2.18 | 99 | 1006.2 |
| 20260506192411 | 7 | 178 | 0.0 | 0.0 | 0.30 | 2.18 | 2.18 | 99 | 1006.0 |
| 20260506191908 | 7 | 342 | 3.2 | 3.2 | 0.13 | 2.16 | 2.16 | 99 | 1006.1 |
| 20260506191405 | 7 | 181 | 0.0 | 0.0 | 0.00 | 2.13 | 2.13 | 99 | 1006.3 |
| 20260506190902 | 7 | 207 | 1.6 | 3.2 | 0.18 | 2.13 | 2.13 | 99 | 1006.0 |
| 20260506190358 | 7 | 211 | 1.6 | 1.6 | 0.18 | 2.13 | 2.13 | 99 | 1005.9 |
| 20260506185855 | 7 | 241 | 1.6 | 1.6 | 0.00 | 2.11 | 2.11 | 99 | 1006.2 |
| 20260506185352 | 8 | 177 | 0.0 | 0.0 | 0.00 | 2.11 | 2.11 | 99 | 1005.9 |
| 20260506184849 | 8 | 344 | 4.8 | 4.8 | 0.00 | 2.11 | 2.11 | 99 | 1006.0 |
| 20260506184346 | 8 | 185 | 0.0 | 0.0 | 0.00 | 2.11 | 2.11 | 99 | 1006.1 |
| 20260506183843 | 7 | 9 | 4.8 | 4.8 | 0.00 | 2.11 | 2.11 | 99 | 1006.0 |
| 20260506183338 | 7 | 318 | 3.2 | 3.2 | 0.00 | 2.11 | 2.11 | 99 | 1006.1 |
| 20260506182836 | 7 | 232 | 1.6 | 1.6 | 0.13 | 2.11 | 2.11 | 99 | 1006.1 |
| 20260506182333 | 7 | 352 | 4.8 | 4.8 | 0.13 | 2.11 | 2.11 | 99 | 1006.3 |
| 20260506181831 | 8 | 221 | 0.0 | 1.6 | 0.00 | 2.08 | 2.08 | 99 | 1006.1 |
| 20260506181329 | 7 | 178 | 0.0 | 0.0 | 0.00 | 2.08 | 2.08 | 99 | 1006.2 |
| 20260506180825 | 7 | 35 | 1.6 | 1.6 | 0.18 | 2.08 | 2.08 | 99 | 1006.3 |
| 20260506180321 | 7 | 6 | 6.4 | 9.7 | 0.30 | 2.08 | 2.08 | 99 | 1006.5 |
| 20260506175818 | 7 | 331 | 3.2 | 3.2 | 0.30 | 2.06 | 2.06 | 99 | 1006.7 |
| 20260506175315 | 7 | 244 | 1.6 | 1.6 | 0.66 | 2.03 | 2.03 | 99 | 1006.7 |
| 20260506174812 | 7 | 192 | 1.6 | 1.6 | 1.07 | 2.01 | 2.01 | 99 | 1006.8 |
| 20260506174309 | 7 | 214 | 1.6 | 1.6 | 0.89 | 1.93 | 1.93 | 99 | 1007.0 |
| 20260506173807 | 7 | 1 | 1.6 | 3.2 | 0.79 | 1.85 | 1.85 | 99 | 1006.7 |
| 20260506173303 | 7 | 238 | 1.6 | 3.2 | 0.61 | 1.78 | 1.78 | 99 | 1006.6 |
| 20260506172800 | 7 | 70 | 3.2 | 3.2 | 0.48 | 1.73 | 1.73 | 99 | 1006.6 |
| 20260506172257 | 7 | 1 | 3.2 | 3.2 | 0.30 | 1.68 | 1.68 | 99 | 1006.6 |
| 20260506171755 | 7 | 5 | 4.8 | 8.0 | 0.30 | 1.65 | 1.65 | 99 | 1006.6 |
| 20260506171251 | 7 | 349 | 3.2 | 3.2 | 0.18 | 1.63 | 1.63 | 99 | 1006.6 |
| 20260506170749 | 7 | 8 | 4.8 | 4.8 | 0.13 | 1.60 | 1.60 | 99 | 1006.7 |
| 20260506170245 | 7 | 6 | 3.2 | 3.2 | 0.13 | 1.60 | 1.60 | 99 | 1006.6 |
| 20260506165744 | 7 | 298 | 3.2 | 3.2 | 0.18 | 1.57 | 1.57 | 99 | 1006.4 |
| 20260506165241 | 7 | 181 | 0.0 | 0.0 | 0.48 | 1.57 | 1.57 | 99 | 1006.6 |
| 20260506164738 | 8 | 256 | 4.8 | 4.8 | 0.61 | 1.55 | 1.55 | 99 | 1006.5 |
| 20260506164235 | 8 | 237 | 3.2 | 3.2 | 0.43 | 1.50 | 1.50 | 99 | 1006.6 |
| 20260506163732 | 8 | 320 | 6.4 | 8.0 | 0.30 | 1.45 | 1.45 | 99 | 1006.6 |
| 20260506163226 | 8 | 306 | 4.8 | 8.0 | 0.36 | 1.42 | 1.42 | 99 | 1006.6 |
| 20260506162722 | 8 | 335 | 1.6 | 4.8 | 0.30 | 1.40 | 1.40 | 99 | 1006.4 |
| 20260506162220 | 8 | 3 | 4.8 | 4.8 | 0.30 | 1.37 | 1.37 | 99 | 1006.6 |
| 20260506161718 | 8 | 16 | 0.0 | 1.6 | 0.48 | 1.35 | 1.35 | 99 | 1006.8 |
| 20260506161215 | 8 | 11 | 4.8 | 4.8 | 0.43 | 1.32 | 1.32 | 99 | 1006.8 |
| 20260506160712 | 8 | 28 | 3.2 | 3.2 | 0.30 | 1.27 | 1.27 | 99 | 1006.7 |
| 20260506160209 | 9 | 188 | 0.0 | 1.6 | 0.18 | 1.24 | 1.24 | 99 | 1006.4 |
| 20260506155707 | 9 | 321 | 3.2 | 3.2 | 0.13 | 1.22 | 1.22 | 99 | 1006.6 |
| 20260506155204 | 9 | 74 | 3.2 | 3.2 | 0.30 | 1.22 | 1.22 | 99 | 1006.6 |
| 20260506153311 | 9 | 359 | 0.0 | 1.6 | 0.30 | 1.07 | 1.07 | 99 | 1006.7 |
| 20260506152808 | 9 | 213 | 1.6 | 1.6 | 0.30 | 1.04 | 1.04 | 99 | 1006.7 |
| 20260506152306 | 9 | 202 | 1.6 | 3.2 | 0.18 | 1.02 | 1.02 | 99 | 1006.7 |
| 20260506151805 | 9 | 212 | 1.6 | 1.6 | 0.13 | 0.99 | 0.99 | 99 | 1006.8 |
| 20260506151301 | 9 | 183 | 1.6 | 1.6 | 0.30 | 0.99 | 0.99 | 99 | 1006.9 |
| 20260506150757 | 9 | 71 | 3.2 | 3.2 | 0.18 | 0.97 | 0.97 | 99 | 1007.0 |
| 20260506150303 | 9 | 239 | 1.6 | 3.2 | 0.13 | 0.94 | 0.94 | 99 | 1007.1 |
| 20260506145751 | 9 | 253 | 3.2 | 3.2 | 0.30 | 0.94 | 0.94 | 99 | 1007.1 |
| 20260506145248 | 9 | 347 | 3.2 | 3.2 | 0.30 | 0.91 | 0.91 | 99 | 1007.4 |
| 20260506144745 | 9 | 184 | 0.0 | 1.6 | 0.13 | 0.89 | 0.89 | 99 | 1007.3 |
| 20260506144242 | 9 | 196 | 0.0 | 1.6 | 0.18 | 0.86 | 0.86 | 99 | 1007.3 |
| 20260506143740 | 9 | 225 | 1.6 | 1.6 | 0.13 | 0.84 | 0.84 | 99 | 1007.3 |
| 20260506143237 | 10 | 222 | 1.6 | 3.2 | 0.13 | 0.84 | 0.84 | 99 | 1007.3 |
| 20260506142736 | 9 | 185 | 1.6 | 1.6 | 0.13 | 0.84 | 0.84 | 99 | 1007.3 |
| 20260506142233 | 10 | 238 | 1.6 | 3.2 | 0.18 | 0.81 | 0.81 | 99 | 1007.1 |
| 20260506141731 | 10 | 202 | 1.6 | 1.6 | 0.18 | 0.81 | 0.81 | 99 | 1007.4 |